createdAt,value
2019-05-14T00:00:46.653Z,80.96
2019-05-14T00:01:46.613Z,81.63
2019-05-14T00:02:46.595Z,81.35
2019-05-14T00:03:46.575Z,81.06
2019-05-14T00:04:46.562Z,81.54
2019-05-14T00:05:46.549Z,80.68
2019-05-14T00:06:46.513Z,80.58
2019-05-14T00:07:46.491Z,80.58
2019-05-14T00:08:46.476Z,80.21
2019-05-14T00:09:46.456Z,80.68
2019-05-14T00:10:46.432Z,80.87
2019-05-14T00:11:46.419Z,80.49
2019-05-14T00:12:46.391Z,80.77
2019-05-14T00:13:46.379Z,80.77
2019-05-14T00:14:46.353Z,81.16
2019-05-14T00:15:46.328Z,81.73
2019-05-14T00:16:46.312Z,81.44
2019-05-14T00:17:46.288Z,81.35
2019-05-14T00:18:46.268Z,82.29
2019-05-14T00:19:46.249Z,82.39
2019-05-14T00:20:46.230Z,81.16
2019-05-14T00:21:46.210Z,82.29
2019-05-14T00:22:46.189Z,82.01
2019-05-14T00:23:46.168Z,81.92
2019-05-14T00:24:46.150Z,81.63
2019-05-14T00:25:46.124Z,82.01
2019-05-14T00:26:46.105Z,82.39
2019-05-14T00:27:46.094Z,81.25
2019-05-14T00:28:46.064Z,81.44
2019-05-14T00:29:46.047Z,81.63
2019-05-14T00:30:46.030Z,82.20
2019-05-14T00:31:46.005Z,81.92
2019-05-14T00:32:45.984Z,82.01
2019-05-14T00:33:45.965Z,81.73
2019-05-14T00:34:45.948Z,81.35
2019-05-14T00:35:45.927Z,81.44
2019-05-14T00:36:45.906Z,81.35
2019-05-14T00:37:45.889Z,81.54
2019-05-14T00:38:45.865Z,81.44
2019-05-14T00:39:45.847Z,80.96
2019-05-14T00:40:45.828Z,81.82
2019-05-14T00:41:45.802Z,81.63
2019-05-14T00:42:45.784Z,81.44
2019-05-14T00:43:45.759Z,82.10
2019-05-14T00:44:54.268Z,82.01
2019-05-14T00:45:45.720Z,81.82
2019-05-14T00:46:45.704Z,81.68
2019-05-14T00:47:45.682Z,81.73
2019-05-14T00:48:45.656Z,81.97
2019-05-14T00:49:45.638Z,82.07
2019-05-14T00:50:45.623Z,82.26
2019-05-14T00:51:45.598Z,82.64
2019-05-14T00:52:46.414Z,82.64
2019-05-14T00:53:45.560Z,83.01
2019-05-14T00:54:45.535Z,82.16
2019-05-14T00:55:45.514Z,82.82
2019-05-14T00:56:45.498Z,83.39
2019-05-14T00:57:45.480Z,82.92
2019-05-14T00:58:45.464Z,82.82
2019-05-14T00:59:45.436Z,82.73
2019-05-14T01:00:45.416Z,83.20
2019-05-14T01:01:45.401Z,82.54
2019-05-14T01:02:45.372Z,82.45
2019-05-14T01:03:45.354Z,81.68
2019-05-14T01:04:45.330Z,82.73
2019-05-14T01:05:45.311Z,83.20
2019-05-14T01:06:45.293Z,83.20
2019-05-14T01:07:45.270Z,83.11
2019-05-14T01:08:45.256Z,83.39
2019-05-14T01:09:45.228Z,83.01
2019-05-14T01:10:45.210Z,82.82
2019-05-14T01:11:45.191Z,83.30
2019-05-14T01:12:45.168Z,82.82
2019-05-14T01:13:45.149Z,83.20
2019-05-14T01:14:45.127Z,83.11
2019-05-14T01:15:45.111Z,83.30
2019-05-14T01:16:45.087Z,82.92
2019-05-14T01:17:45.070Z,83.20
2019-05-14T01:18:45.043Z,83.01
2019-05-14T01:19:45.034Z,83.39
2019-05-14T01:20:45.004Z,83.11
2019-05-14T01:21:44.984Z,83.49
2019-05-14T01:22:44.967Z,83.78
2019-05-14T01:23:44.944Z,83.59
2019-05-14T01:24:44.926Z,83.01
2019-05-14T01:25:44.903Z,83.39
2019-05-14T01:26:44.888Z,83.20
2019-05-14T01:27:44.860Z,83.78
2019-05-14T01:28:44.845Z,83.39
2019-05-14T01:29:44.817Z,83.20
2019-05-14T01:30:44.799Z,83.59
2019-05-14T01:31:44.773Z,83.01
2019-05-14T01:32:44.759Z,82.92
2019-05-14T01:33:44.738Z,83.11
2019-05-14T01:34:44.719Z,83.39
2019-05-14T01:35:44.697Z,83.49
2019-05-14T01:36:44.679Z,83.39
2019-05-14T01:37:44.658Z,84.06
2019-05-14T01:38:44.638Z,83.30
2019-05-14T01:39:44.618Z,83.59
2019-05-14T01:40:44.592Z,83.59
2019-05-14T01:41:44.570Z,83.11
2019-05-14T01:42:44.553Z,83.20
2019-05-14T01:43:44.530Z,83.39
2019-05-14T01:44:44.508Z,83.78
2019-05-14T01:45:44.495Z,84.16
2019-05-14T01:46:44.475Z,83.87
2019-05-14T01:47:44.451Z,83.87
2019-05-14T01:48:44.427Z,84.06
2019-05-14T01:49:44.407Z,83.68
2019-05-14T01:50:44.395Z,84.34
2019-05-14T01:51:44.369Z,84.63
2019-05-14T01:52:44.343Z,84.63
2019-05-14T01:53:44.327Z,84.06
2019-05-14T01:54:44.303Z,84.44
2019-05-14T01:55:44.283Z,84.44
2019-05-14T01:56:44.261Z,84.53
2019-05-14T01:57:44.242Z,84.34
2019-05-14T01:58:44.223Z,84.72
2019-05-14T01:59:44.195Z,83.87
2019-05-14T02:00:44.181Z,84.53
2019-05-14T02:01:44.163Z,85.44
2019-05-14T02:02:44.143Z,85.25
2019-05-14T02:03:44.117Z,85.25
2019-05-14T02:04:44.098Z,85.35
2019-05-14T02:05:44.081Z,85.63
2019-05-14T02:06:44.057Z,85.63
2019-05-14T02:07:44.039Z,85.35
2019-05-14T02:08:44.015Z,86.20
2019-05-14T02:09:43.996Z,86.11
2019-05-14T02:10:43.973Z,85.82
2019-05-14T02:11:43.952Z,86.01
2019-05-14T02:12:43.931Z,85.06
2019-05-14T02:13:43.913Z,85.72
2019-05-14T02:14:43.889Z,85.63
2019-05-14T02:15:43.870Z,85.44
2019-05-14T02:16:43.845Z,86.01
2019-05-14T02:17:43.827Z,85.53
2019-05-14T02:18:43.805Z,85.44
2019-05-14T02:19:43.789Z,86.01
2019-05-14T02:20:43.766Z,85.82
2019-05-14T02:21:43.745Z,85.63
2019-05-14T02:22:43.724Z,85.91
2019-05-14T02:23:43.704Z,85.91
2019-05-14T02:24:43.684Z,86.30
2019-05-14T02:25:43.662Z,85.91
2019-05-14T02:26:43.638Z,85.82
2019-05-14T02:27:43.619Z,86.01
2019-05-14T02:28:43.599Z,86.01
2019-05-14T02:29:43.625Z,86.11
2019-05-14T02:30:52.457Z,85.82
2019-05-14T02:31:43.536Z,86.01
2019-05-14T02:32:43.525Z,86.11
2019-05-14T02:33:43.495Z,85.53
2019-05-14T02:34:43.477Z,85.91
2019-05-14T02:35:43.451Z,86.96
2019-05-14T02:36:43.440Z,86.87
2019-05-14T02:37:43.414Z,86.96
2019-05-14T02:38:43.388Z,87.34
2019-05-14T02:39:43.372Z,87.05
2019-05-14T02:40:43.349Z,87.34
2019-05-14T02:41:43.330Z,86.87
2019-05-14T02:42:43.316Z,87.24
2019-05-14T02:43:43.301Z,86.87
2019-05-14T02:44:43.277Z,86.68
2019-05-14T02:46:00.761Z,86.68
2019-05-14T02:46:43.225Z,87.53
2019-05-14T02:47:43.203Z,87.34
2019-05-14T02:48:43.186Z,87.34
2019-05-14T02:49:43.164Z,87.91
2019-05-14T02:50:43.142Z,87.91
2019-05-14T02:51:43.134Z,87.53
2019-05-14T02:52:43.096Z,87.91
2019-05-14T02:53:43.079Z,87.72
2019-05-14T02:54:43.059Z,88.39
2019-05-14T02:55:43.032Z,87.91
2019-05-14T02:56:43.012Z,88.29
2019-05-14T02:57:42.993Z,88.06
2019-05-14T02:58:42.983Z,88.53
2019-05-14T02:59:42.953Z,89.05
2019-05-14T03:00:42.925Z,89.05
2019-05-14T03:01:42.924Z,89.62
2019-05-14T03:02:42.894Z,90.00
2019-05-14T03:03:42.864Z,90.14
2019-05-14T03:04:42.846Z,90.00
2019-05-14T03:05:42.827Z,89.76
2019-05-14T03:06:42.802Z,90.28
2019-05-14T03:07:42.782Z,90.95
2019-05-14T03:08:42.759Z,90.62
2019-05-14T03:09:42.739Z,90.43
2019-05-14T03:10:42.718Z,90.05
2019-05-14T03:11:42.696Z,90.14
2019-05-14T03:12:42.676Z,91.09
2019-05-14T03:13:42.659Z,90.71
2019-05-14T03:14:42.635Z,90.81
2019-05-14T03:15:42.616Z,91.00
2019-05-14T03:16:42.595Z,91.38
2019-05-14T03:17:42.572Z,91.00
2019-05-14T03:18:42.564Z,91.56
2019-05-14T03:19:42.528Z,91.00
2019-05-14T03:20:42.505Z,90.81
2019-05-14T03:21:42.485Z,90.81
2019-05-14T03:23:01.381Z,91.75
2019-05-14T03:23:42.450Z,91.19
2019-05-14T03:24:42.421Z,92.23
2019-05-14T03:25:42.405Z,92.23
2019-05-14T03:26:42.385Z,93.18
2019-05-14T03:27:42.359Z,92.71
2019-05-14T03:28:42.339Z,92.61
2019-05-14T03:29:42.319Z,92.52
2019-05-14T03:30:43.132Z,92.90
2019-05-14T03:31:43.368Z,92.80
2019-05-14T03:32:43.311Z,92.52
2019-05-14T03:33:44.308Z,93.08
2019-05-14T03:34:43.882Z,93.46
2019-05-14T03:35:50.001Z,93.18
2019-05-14T03:36:43.303Z,92.61
2019-05-14T03:37:42.149Z,92.52
2019-05-14T03:38:42.125Z,92.80
2019-05-14T03:39:42.114Z,92.90
2019-05-14T03:40:42.089Z,92.71
2019-05-14T03:41:42.063Z,92.99
2019-05-14T03:42:42.044Z,93.08
2019-05-14T03:43:42.025Z,92.71
2019-05-14T03:44:42.001Z,93.18
2019-05-14T03:45:41.978Z,93.37
2019-05-14T03:46:51.132Z,94.32
2019-05-14T03:47:41.944Z,93.84
2019-05-14T03:48:41.928Z,94.42
2019-05-14T03:49:41.901Z,94.51
2019-05-14T03:50:41.871Z,95.07
2019-05-14T03:51:41.853Z,94.79
2019-05-14T03:52:41.831Z,95.07
2019-05-14T03:53:55.252Z,95.55
2019-05-14T03:54:41.785Z,94.98
2019-05-14T03:55:41.884Z,95.17
2019-05-14T03:56:41.751Z,95.17
2019-05-14T03:57:41.728Z,95.36
2019-05-14T03:58:41.701Z,95.55
2019-05-14T03:59:41.749Z,95.27
2019-05-14T04:00:41.657Z,95.55
2019-05-14T04:01:41.640Z,95.36
2019-05-14T04:02:41.627Z,94.60
2019-05-14T04:03:41.598Z,94.70
2019-05-14T04:04:41.575Z,94.89
2019-05-14T04:05:41.562Z,95.55
2019-05-14T04:06:41.531Z,95.84
2019-05-14T04:07:41.512Z,95.84
2019-05-14T04:08:41.494Z,95.74
2019-05-14T04:09:41.477Z,95.93
2019-05-14T04:10:49.086Z,96.12
2019-05-14T04:11:41.427Z,96.41
2019-05-14T04:12:41.406Z,96.97
2019-05-14T04:13:41.403Z,97.02
2019-05-14T04:14:41.362Z,96.83
2019-05-14T04:15:41.338Z,96.36
2019-05-14T04:16:58.531Z,96.83
2019-05-14T04:17:42.429Z,96.74
2019-05-14T04:18:41.276Z,96.55
2019-05-14T04:19:41.257Z,97.41
2019-05-14T04:20:41.239Z,96.93
2019-05-14T04:21:41.219Z,97.31
2019-05-14T04:22:41.196Z,97.12
2019-05-14T04:23:41.179Z,97.31
2019-05-14T04:24:41.743Z,97.88
2019-05-14T04:25:41.140Z,96.55
2019-05-14T04:26:56.246Z,96.45
2019-05-14T04:27:41.087Z,97.12
2019-05-14T04:28:41.064Z,97.02
2019-05-14T04:29:41.054Z,97.69
2019-05-14T04:30:41.030Z,97.50
2019-05-14T04:31:41.000Z,97.31
2019-05-14T04:32:41.083Z,96.93
2019-05-14T04:33:40.964Z,97.22
2019-05-14T04:34:40.946Z,97.12
2019-05-14T04:35:40.921Z,97.02
2019-05-14T04:36:40.897Z,97.50
2019-05-14T04:37:40.879Z,97.41
2019-05-14T04:38:41.333Z,97.97
2019-05-14T04:39:40.848Z,97.69
2019-05-14T04:40:40.817Z,98.07
2019-05-14T04:41:40.789Z,97.88
2019-05-14T04:42:40.767Z,98.26
2019-05-14T04:43:40.762Z,97.88
2019-05-14T04:44:40.842Z,98.16
2019-05-14T04:45:40.706Z,98.26
2019-05-14T04:46:40.685Z,98.45
2019-05-14T04:47:42.065Z,98.26
2019-05-14T04:48:43.234Z,98.07
2019-05-14T04:49:40.622Z,99.07
2019-05-14T04:50:40.681Z,98.88
2019-05-14T04:51:40.590Z,98.97
2019-05-14T04:52:40.910Z,98.21
2019-05-14T04:53:40.539Z,98.31
2019-05-14T04:54:40.525Z,98.12
2019-05-14T04:55:40.507Z,97.74
2019-05-14T04:56:40.481Z,97.64
2019-05-14T04:57:40.454Z,97.92
2019-05-14T04:58:41.301Z,97.07
2019-05-14T04:59:40.414Z,97.17
2019-05-14T05:00:40.389Z,98.12
2019-05-14T05:01:40.484Z,97.83
2019-05-14T05:02:40.349Z,97.92
2019-05-14T05:03:40.429Z,98.17
2019-05-14T05:04:41.486Z,96.93
2019-05-14T05:05:40.293Z,97.22
2019-05-14T05:06:40.265Z,96.84
2019-05-14T05:07:40.678Z,96.84
2019-05-14T05:08:40.228Z,95.89
2019-05-14T05:09:40.332Z,96.17
2019-05-14T05:10:40.181Z,96.17
2019-05-14T05:11:40.158Z,95.89
2019-05-14T05:12:40.142Z,96.26
2019-05-14T05:13:40.133Z,96.55
2019-05-14T05:14:40.097Z,96.74
2019-05-14T05:15:40.080Z,96.36
2019-05-14T05:16:40.057Z,96.08
2019-05-14T05:17:48.183Z,96.74
2019-05-14T05:18:40.340Z,96.45
2019-05-14T05:19:45.139Z,95.89
2019-05-14T05:20:39.980Z,95.89
2019-05-14T05:21:39.955Z,95.79
2019-05-14T05:22:40.137Z,95.60
2019-05-14T05:23:39.908Z,96.08
2019-05-14T05:24:39.892Z,95.75
2019-05-14T05:25:39.864Z,94.98
2019-05-14T05:26:39.850Z,95.08
2019-05-14T05:27:39.826Z,95.46
2019-05-14T05:28:39.810Z,95.17
2019-05-14T05:29:39.790Z,95.56
2019-05-14T05:30:39.763Z,96.22
2019-05-14T05:31:39.752Z,94.89
2019-05-14T05:32:39.726Z,94.70
2019-05-14T05:33:39.702Z,94.70
2019-05-14T05:34:39.694Z,94.22
2019-05-14T05:35:42.333Z,94.42
2019-05-14T05:36:39.645Z,93.98
2019-05-14T05:37:39.624Z,94.27
2019-05-14T05:38:39.785Z,94.27
2019-05-14T05:39:39.634Z,94.56
2019-05-14T05:40:39.564Z,94.27
2019-05-14T05:41:39.538Z,94.56
2019-05-14T05:42:39.521Z,94.27
2019-05-14T05:43:39.668Z,93.98
2019-05-14T05:44:39.646Z,93.60
2019-05-14T05:45:39.462Z,93.60
2019-05-14T05:46:39.438Z,94.37
2019-05-14T05:47:54.097Z,94.08
2019-05-14T05:48:39.393Z,93.51
2019-05-14T05:49:39.376Z,93.41
2019-05-14T05:50:39.356Z,93.51
2019-05-14T05:51:39.474Z,93.04
2019-05-14T05:52:39.316Z,93.51
2019-05-14T05:53:39.663Z,92.99
2019-05-14T05:54:39.283Z,92.89
2019-05-14T05:55:39.577Z,92.89
2019-05-14T05:56:39.240Z,92.51
2019-05-14T05:57:39.574Z,92.60
2019-05-14T05:58:39.922Z,92.79
2019-05-14T05:59:39.517Z,92.99
2019-05-14T06:00:40.263Z,93.55
2019-05-14T06:01:45.743Z,92.79
2019-05-14T06:02:40.022Z,92.99
2019-05-14T06:03:39.464Z,92.51
2019-05-14T06:04:39.516Z,92.22
2019-05-14T06:05:39.207Z,92.46
2019-05-14T06:06:39.174Z,92.65
2019-05-14T06:07:39.702Z,92.08
2019-05-14T06:08:39.074Z,91.41
2019-05-14T06:09:38.978Z,90.94
2019-05-14T06:10:39.915Z,90.84
2019-05-14T06:11:38.939Z,90.94
2019-05-14T06:12:39.120Z,90.75
2019-05-14T06:13:39.297Z,90.27
2019-05-14T06:14:38.880Z,90.08
2019-05-14T06:15:45.573Z,89.70
2019-05-14T06:16:38.839Z,90.27
2019-05-14T06:17:39.329Z,90.46
2019-05-14T06:18:39.529Z,89.41
2019-05-14T06:19:38.779Z,89.75
2019-05-14T06:20:38.924Z,89.94
2019-05-14T06:21:39.820Z,89.55
2019-05-14T06:22:38.781Z,89.75
2019-05-14T06:23:38.949Z,88.98
2019-05-14T06:24:39.125Z,89.07
2019-05-14T06:25:40.037Z,88.98
2019-05-14T06:26:38.645Z,89.17
2019-05-14T06:27:38.621Z,89.26
2019-05-14T06:28:40.941Z,89.07
2019-05-14T06:29:38.584Z,88.93
2019-05-14T06:30:39.596Z,88.93
2019-05-14T06:31:38.871Z,89.70
2019-05-14T06:32:38.924Z,89.36
2019-05-14T06:33:39.412Z,89.79
2019-05-14T06:34:38.505Z,88.93
2019-05-14T06:35:39.626Z,89.22
2019-05-14T06:36:39.535Z,89.32
2019-05-14T06:37:38.739Z,89.03
2019-05-14T06:38:38.960Z,90.03
2019-05-14T06:39:39.114Z,89.75
2019-05-14T06:40:39.472Z,89.55
2019-05-14T06:41:42.647Z,89.07
2019-05-14T06:42:39.448Z,88.41
2019-05-14T06:43:39.220Z,87.65
2019-05-14T06:44:38.692Z,87.27
2019-05-14T06:45:39.085Z,87.12
2019-05-14T06:46:39.129Z,88.55
2019-05-14T06:47:38.457Z,87.69
2019-05-14T06:48:39.705Z,87.69
2019-05-14T06:49:38.620Z,86.26
2019-05-14T06:50:39.219Z,86.30
2019-05-14T06:51:39.541Z,86.40
2019-05-14T06:52:38.904Z,85.93
2019-05-14T06:53:39.319Z,85.06
2019-05-14T06:54:38.731Z,84.40
2019-05-14T06:55:39.321Z,83.73
2019-05-14T06:56:38.674Z,83.44
2019-05-14T06:57:39.414Z,83.54
2019-05-14T06:58:38.877Z,83.44
2019-05-14T06:59:38.252Z,83.39
2019-05-14T07:00:39.380Z,83.11
2019-05-14T07:01:38.594Z,82.72
2019-05-14T07:02:43.234Z,82.06
2019-05-14T07:03:38.389Z,82.53
2019-05-14T07:04:39.504Z,82.06
2019-05-14T07:05:38.979Z,80.62
2019-05-14T07:06:39.079Z,80.43
2019-05-14T07:07:40.460Z,79.57
2019-05-14T07:08:39.246Z,80.33
2019-05-14T07:09:38.484Z,80.15
2019-05-14T07:10:39.472Z,79.96
2019-05-14T07:11:38.900Z,79.67
2019-05-14T07:12:38.759Z,79.86
2019-05-14T07:13:38.580Z,79.99
2019-05-14T07:14:38.809Z,79.28
2019-05-14T07:15:38.666Z,79.61
2019-05-14T07:16:38.990Z,78.37
2019-05-14T07:17:38.416Z,78.56
2019-05-14T07:18:46.336Z,78.37
2019-05-14T07:19:38.507Z,78.66
2019-05-14T07:20:39.219Z,78.37
2019-05-14T07:21:38.366Z,78.56
2019-05-14T07:22:38.991Z,78.56
2019-05-14T07:23:38.525Z,77.32
2019-05-14T07:24:40.470Z,77.70
2019-05-14T07:25:39.372Z,77.89
2019-05-14T07:26:38.761Z,77.70
2019-05-14T07:27:39.216Z,77.45
2019-05-14T07:28:42.103Z,76.50
2019-05-14T07:29:38.761Z,76.12
2019-05-14T07:30:39.618Z,76.21
2019-05-14T07:31:38.472Z,76.50
2019-05-14T07:32:39.544Z,76.79
2019-05-14T07:33:38.897Z,76.69
2019-05-14T07:34:38.905Z,76.79
2019-05-14T07:40:08.559Z,76.45
2019-05-14T07:41:09.287Z,76.31
2019-05-14T07:42:09.335Z,75.87
2019-05-14T07:43:09.037Z,75.59
2019-05-14T07:44:09.122Z,76.16
2019-05-14T07:45:09.477Z,74.15
2019-05-14T07:46:08.506Z,73.58
2019-05-14T07:47:08.151Z,73.10
2019-05-14T07:49:10.916Z,72.91
2019-05-14T07:50:08.650Z,72.20
2019-05-14T07:51:08.882Z,73.07
2019-05-14T07:52:06.646Z,74.02
2019-05-14T07:53:08.933Z,73.92
2019-05-14T07:54:08.338Z,73.73
2019-05-14T07:55:06.590Z,73.83
2019-05-14T07:56:06.589Z,74.30
2019-05-14T07:57:08.762Z,74.21
2019-05-14T07:58:08.376Z,74.30
2019-05-14T07:59:08.819Z,74.30
2019-05-14T08:00:08.160Z,72.53
2019-05-14T08:01:09.147Z,72.72
2019-05-14T08:02:09.143Z,72.33
2019-05-14T08:03:08.246Z,70.71
2019-05-14T08:04:10.193Z,70.61
2019-05-14T08:05:08.604Z,69.85
2019-05-14T08:06:08.261Z,69.18
2019-05-14T08:07:08.722Z,69.70
2019-05-14T08:08:08.036Z,69.12
2019-05-14T08:09:08.530Z,66.63
2019-05-14T08:10:06.351Z,66.92
2019-05-14T08:11:08.460Z,67.30
2019-05-14T08:12:06.318Z,67.69
2019-05-14T08:13:08.413Z,66.63
2019-05-14T08:14:08.852Z,66.19
2019-05-14T08:15:15.340Z,65.78
2019-05-14T08:16:06.262Z,63.73
2019-05-14T08:17:08.470Z,60.92
2019-05-14T08:18:08.082Z,58.89
2019-05-14T08:19:23.006Z,55.85
2019-05-14T08:20:06.208Z,55.04
2019-05-14T08:21:08.267Z,53.36
2019-05-14T08:22:06.178Z,51.07
2019-05-14T08:23:08.758Z,48.35
2019-05-14T08:24:08.693Z,48.88
2019-05-14T08:25:08.432Z,49.22
2019-05-14T08:26:07.928Z,50.90
2019-05-14T08:27:08.389Z,50.93
2019-05-14T08:28:08.151Z,50.21
2019-05-14T08:29:06.098Z,48.38
2019-05-14T08:30:08.110Z,46.95
2019-05-14T08:31:06.081Z,45.97
2019-05-14T08:32:08.589Z,46.38
2019-05-14T08:33:06.064Z,48.52
2019-05-14T08:34:06.714Z,50.78
2019-05-14T08:35:06.043Z,52.31
2019-05-14T08:36:06.041Z,52.69
2019-05-14T08:37:08.106Z,53.44
2019-05-14T08:38:11.326Z,54.01
2019-05-14T08:39:06.005Z,53.94
2019-05-14T08:40:05.995Z,53.90
2019-05-14T08:41:08.211Z,52.62
2019-05-14T08:42:08.280Z,51.50
2019-05-14T08:43:05.966Z,50.97
2019-05-14T08:44:08.348Z,50.61
2019-05-14T08:45:10.504Z,49.10
2019-05-14T08:46:48.779Z,46.77
2019-05-14T08:47:48.472Z,48.35
2019-05-14T08:48:49.550Z,49.31
2019-05-14T08:49:50.655Z,50.25
2019-05-14T08:50:48.438Z,50.40
2019-05-14T08:51:49.588Z,48.23
2019-05-14T08:52:48.513Z,47.53
2019-05-14T08:53:50.366Z,48.79
2019-05-14T08:54:50.549Z,49.15
2019-05-14T08:55:48.898Z,49.22
2019-05-14T08:56:49.096Z,48.35
2019-05-14T08:57:48.876Z,48.97
2019-05-14T08:58:49.410Z,49.82
2019-05-14T08:59:48.829Z,51.35
2019-05-14T09:00:48.543Z,51.04
2019-05-14T09:01:58.511Z,50.37
2019-05-14T09:02:48.705Z,49.31
2019-05-14T09:03:49.197Z,48.47
2019-05-14T09:04:53.944Z,47.85
2019-05-14T09:05:49.180Z,48.35
2019-05-14T09:06:48.929Z,46.95
2019-05-14T09:07:49.058Z,44.11
2019-05-14T09:08:49.765Z,42.79
2019-05-14T09:09:48.919Z,41.17
2019-05-14T09:10:49.765Z,39.99
2019-05-14T09:11:50.442Z,39.99
2019-05-14T09:12:49.076Z,41.53
2019-05-14T09:13:49.065Z,40.95
2019-05-14T09:14:48.561Z,41.32
2019-05-14T09:15:48.901Z,40.53
2019-05-14T09:16:51.170Z,41.51
2019-05-14T09:17:48.774Z,41.89
2019-05-14T09:18:49.345Z,42.07
2019-05-14T09:20:01.870Z,42.26
2019-05-14T09:20:48.885Z,42.38
2019-05-14T09:21:49.610Z,42.38
2019-05-14T09:22:49.018Z,42.28
2019-05-14T09:23:48.381Z,43.63
2019-05-14T09:24:49.189Z,43.07
2019-05-14T09:25:53.082Z,41.53
2019-05-14T09:26:48.436Z,41.71
2019-05-14T09:27:49.370Z,41.68
2019-05-14T09:28:48.485Z,43.55
2019-05-14T09:29:48.530Z,43.65
2019-05-14T09:30:48.769Z,42.93
2019-05-14T09:31:49.422Z,42.46
2019-05-14T09:32:49.334Z,40.82
2019-05-14T09:33:49.427Z,40.51
2019-05-14T09:34:48.787Z,40.39
2019-05-14T09:35:49.294Z,39.22
2019-05-14T09:36:48.964Z,41.46
2019-05-14T09:37:51.361Z,40.61
2019-05-14T09:38:49.100Z,40.70
2019-05-14T09:39:48.817Z,40.05
2019-05-14T09:40:48.996Z,40.26
2019-05-14T09:41:48.385Z,40.19
2019-05-14T09:42:50.002Z,38.93
2019-05-14T09:43:48.919Z,38.37
2019-05-14T09:44:49.039Z,39.16
2019-05-14T09:45:48.295Z,38.13
2019-05-14T09:46:50.018Z,36.68
2019-05-14T09:47:50.591Z,36.99
2019-05-14T09:48:48.604Z,35.81
2019-05-14T09:49:49.088Z,35.76
2019-05-14T09:50:48.947Z,37.46
2019-05-14T09:51:48.849Z,37.43
2019-05-14T09:52:49.382Z,37.98
2019-05-14T09:53:49.077Z,40.12
2019-05-14T09:54:49.656Z,39.86
2019-05-14T09:55:49.136Z,39.49
2019-05-14T09:56:48.502Z,38.21
2019-05-14T09:57:49.121Z,38.31
2019-05-14T09:58:49.471Z,37.46
2019-05-14T09:59:48.117Z,37.87
2019-05-14T10:00:48.663Z,37.96
2019-05-14T10:01:50.753Z,36.90
2019-05-14T10:02:49.254Z,37.19
2019-05-14T10:03:49.619Z,37.19
2019-05-14T10:04:49.053Z,36.59
2019-05-14T10:05:50.120Z,37.33
2019-05-14T10:06:48.628Z,39.53
2019-05-14T10:07:49.432Z,39.62
2019-05-14T10:08:48.587Z,39.14
2019-05-14T10:09:49.249Z,39.34
2019-05-14T10:10:48.858Z,38.87
2019-05-14T10:11:48.620Z,38.78
2019-05-14T10:12:53.832Z,38.28
2019-05-14T10:13:48.518Z,37.81
2019-05-14T10:14:48.648Z,38.28
2019-05-14T10:15:48.623Z,38.93
2019-05-14T10:16:49.097Z,39.22
2019-05-14T10:17:49.972Z,39.68
2019-05-14T10:18:48.702Z,40.43
2019-05-14T10:19:49.900Z,40.99
2019-05-14T10:20:49.452Z,40.51
2019-05-14T10:21:49.362Z,41.64
2019-05-14T10:22:48.299Z,42.41
2019-05-14T10:23:47.948Z,42.05
2019-05-14T10:24:47.953Z,41.53
2019-05-14T10:25:47.944Z,41.17
2019-05-14T10:26:48.995Z,39.43
2019-05-14T10:27:48.631Z,39.04
2019-05-14T10:28:48.422Z,37.96
2019-05-14T10:29:48.318Z,37.87
2019-05-14T10:30:49.082Z,38.97
2019-05-14T10:31:48.647Z,37.93
2019-05-14T10:32:49.195Z,36.96
2019-05-14T10:33:48.711Z,36.48
2019-05-14T10:34:48.495Z,36.40
2019-05-14T10:35:48.519Z,36.87
2019-05-14T10:36:47.891Z,36.75
2019-05-14T10:37:47.886Z,36.27
2019-05-14T10:38:47.882Z,36.73
2019-05-14T10:39:47.874Z,36.81
2019-05-14T10:40:47.874Z,37.89
2019-05-14T10:41:47.865Z,38.54
2019-05-14T10:42:49.477Z,37.66
2019-05-14T10:43:49.677Z,38.04
2019-05-14T10:44:47.861Z,38.87
2019-05-14T10:45:49.382Z,39.83
2019-05-14T10:46:47.845Z,40.78
2019-05-14T10:47:49.375Z,41.91
2019-05-14T10:48:47.839Z,41.33
2019-05-14T10:49:47.825Z,41.62
2019-05-14T10:50:57.404Z,41.60
2019-05-14T10:51:48.027Z,41.60
2019-05-14T10:52:48.832Z,40.45
2019-05-14T10:53:48.958Z,41.60
2019-05-14T10:54:55.263Z,41.62
2019-05-14T10:55:48.590Z,39.43
2019-05-14T10:56:49.439Z,39.93
2019-05-14T10:57:53.360Z,40.24
2019-05-14T10:58:49.072Z,40.24
2019-05-14T10:59:47.773Z,38.68
2019-05-14T11:00:49.477Z,38.68
2019-05-14T11:01:47.759Z,39.45
2019-05-14T11:02:49.206Z,39.45
2019-05-14T11:03:48.464Z,38.78
2019-05-14T11:04:48.373Z,37.83
2019-05-14T11:05:48.207Z,37.37
2019-05-14T11:06:49.064Z,35.71
2019-05-14T11:07:48.311Z,36.41
2019-05-14T11:08:49.194Z,36.13
2019-05-14T11:09:48.664Z,35.85
2019-05-14T11:10:49.859Z,36.02
2019-05-14T11:11:47.699Z,36.55
2019-05-14T11:12:50.716Z,35.38
2019-05-14T11:13:47.701Z,35.38
2019-05-14T11:14:49.396Z,35.46
2019-05-14T11:15:48.724Z,36.11
2019-05-14T11:16:48.596Z,36.00
2019-05-14T11:17:48.718Z,36.66
2019-05-14T11:18:49.662Z,36.76
2019-05-14T11:19:47.914Z,37.35
2019-05-14T11:20:51.539Z,37.06
2019-05-14T11:21:48.396Z,37.26
2019-05-14T11:22:49.084Z,36.71
2019-05-14T11:23:49.017Z,35.36
2019-05-14T11:24:49.122Z,36.43
2019-05-14T11:25:48.770Z,36.25
2019-05-14T11:26:48.771Z,36.83
2019-05-14T11:27:49.278Z,35.36
2019-05-14T11:28:49.064Z,35.85
2019-05-14T11:29:49.064Z,36.11
2019-05-14T11:30:49.393Z,35.73
2019-05-14T11:31:48.433Z,37.76
2019-05-14T11:32:49.311Z,37.45
2019-05-14T11:33:49.687Z,37.04
2019-05-14T11:34:47.576Z,36.76
2019-05-14T11:35:47.568Z,37.41
2019-05-14T11:36:49.702Z,38.85
2019-05-14T11:37:48.031Z,38.54
2019-05-14T11:38:50.276Z,38.54
2019-05-14T11:39:48.687Z,38.45
2019-05-14T11:40:49.513Z,38.81
2019-05-14T11:41:49.286Z,39.20
2019-05-14T11:42:49.473Z,37.95
2019-05-14T11:43:49.329Z,38.24
2019-05-14T11:44:48.815Z,38.43
2019-05-14T11:45:48.523Z,38.04
2019-05-14T11:46:57.139Z,38.24
2019-05-14T11:47:48.901Z,38.53
2019-05-14T11:48:48.976Z,38.70
2019-05-14T11:49:49.267Z,38.34
2019-05-14T11:50:49.189Z,37.66
2019-05-14T11:52:00.813Z,38.62
2019-05-14T11:52:48.393Z,38.43
2019-05-14T11:53:49.421Z,38.91
2019-05-14T11:54:49.401Z,39.01
2019-05-14T11:55:50.327Z,38.99
2019-05-14T11:56:48.331Z,39.16
2019-05-14T11:57:48.574Z,40.41
2019-05-14T11:58:47.416Z,40.58
2019-05-14T11:59:47.404Z,41.16
2019-05-14T12:00:47.397Z,41.63
2019-05-14T12:01:49.396Z,41.73
2019-05-14T12:02:47.384Z,41.63
2019-05-14T12:03:49.935Z,41.35
2019-05-14T12:04:47.362Z,40.58
2019-05-14T12:05:49.494Z,40.39
2019-05-14T12:06:47.346Z,40.10
2019-05-14T12:07:47.338Z,40.20
2019-05-14T12:08:47.340Z,39.91
2019-05-14T12:09:47.327Z,41.83
2019-05-14T12:10:47.315Z,41.54
2019-05-14T12:11:47.298Z,40.67
2019-05-14T12:12:48.949Z,41.17
2019-05-14T12:13:48.672Z,40.43
2019-05-14T12:14:48.503Z,41.10
2019-05-14T12:15:48.521Z,40.14
2019-05-14T12:16:49.360Z,38.99
2019-05-14T12:17:50.825Z,39.18
2019-05-14T12:18:48.396Z,38.60
2019-05-14T12:19:48.471Z,38.99
2019-05-14T12:20:49.716Z,39.06
2019-05-14T12:21:59.978Z,38.96
2019-05-14T12:22:48.727Z,38.87
2019-05-14T12:23:47.201Z,39.64
2019-05-14T12:24:49.199Z,39.35
2019-05-14T12:25:49.123Z,38.87
2019-05-14T12:26:49.093Z,38.59
2019-05-14T12:27:49.620Z,37.82
2019-05-14T12:28:49.394Z,38.29
2019-05-14T12:29:49.871Z,37.80
2019-05-14T12:30:48.997Z,38.56
2019-05-14T12:31:50.484Z,37.89
2019-05-14T12:32:49.316Z,37.80
2019-05-14T12:33:48.870Z,38.47
2019-05-14T12:34:48.917Z,38.66
2019-05-14T12:35:49.462Z,39.04
2019-05-14T12:36:49.296Z,39.35
2019-05-14T12:37:47.069Z,38.96
2019-05-14T12:38:47.058Z,39.35
2019-05-14T12:39:47.042Z,37.97
2019-05-14T12:40:47.034Z,37.47
2019-05-14T12:41:49.034Z,37.27
2019-05-14T12:42:49.652Z,37.95
2019-05-14T12:43:47.004Z,38.81
2019-05-14T12:44:47.000Z,38.51
2019-05-14T12:45:46.991Z,39.08
2019-05-14T12:46:49.004Z,39.06
2019-05-14T12:47:49.847Z,39.26
2019-05-14T12:48:49.371Z,40.02
2019-05-14T12:49:48.296Z,40.02
2019-05-14T12:50:48.868Z,40.10
2019-05-14T12:51:49.139Z,40.00
2019-05-14T12:52:48.495Z,41.06
2019-05-14T12:53:48.752Z,40.39
2019-05-14T12:54:46.908Z,40.10
2019-05-14T12:55:48.706Z,40.22
2019-05-14T12:56:49.347Z,40.50
2019-05-14T12:57:48.631Z,40.02
2019-05-14T12:58:48.871Z,40.22